createdAt,value
2018-06-28T00:00:18.023Z,997.74
2018-06-28T00:01:27.595Z,997.72
2018-06-28T00:02:37.395Z,997.69
2018-06-28T00:03:47.464Z,997.66
2018-06-28T00:04:57.541Z,997.67
2018-06-28T00:06:07.622Z,997.63
2018-06-28T00:07:17.451Z,997.56
2018-06-28T00:08:27.534Z,997.52
2018-06-28T00:09:37.368Z,997.47
2018-06-28T00:10:47.167Z,997.38
2018-06-28T00:11:57.246Z,997.41
2018-06-28T00:13:07.062Z,997.41
2018-06-28T00:14:17.145Z,997.44
2018-06-28T00:15:27.231Z,997.43
2018-06-28T00:16:37.354Z,997.37
2018-06-28T00:17:47.167Z,997.42
2018-06-28T00:18:57.234Z,997.41
2018-06-28T00:20:07.050Z,997.3
2018-06-28T00:21:17.145Z,997.33
2018-06-28T00:22:27.012Z,997.27
2018-06-28T00:23:37.087Z,997.28
2018-06-28T00:24:46.899Z,997.2
2018-06-28T00:25:56.954Z,997.2
2018-06-28T00:27:06.758Z,997.14
2018-06-28T00:28:16.845Z,997.13
2018-06-28T00:29:26.929Z,997.14
2018-06-28T00:30:37.009Z,997.15
2018-06-28T00:31:47.077Z,997.15
2018-06-28T00:32:56.872Z,997.01
2018-06-28T00:34:06.953Z,997.03
2018-06-28T00:35:16.760Z,997.04
2018-06-28T00:36:26.316Z,997.1
2018-06-28T00:37:36.410Z,997.01
2018-06-28T00:38:46.220Z,997.01
2018-06-28T00:39:56.284Z,997.02
2018-06-28T00:41:06.368Z,996.92
2018-06-28T00:42:16.182Z,996.95
2018-06-28T00:43:26.255Z,996.93
2018-06-28T00:44:36.334Z,996.83
2018-06-28T00:45:46.415Z,996.89
2018-06-28T00:46:56.519Z,996.83
2018-06-28T00:48:06.590Z,996.85
2018-06-28T00:49:16.660Z,996.88
2018-06-28T00:50:26.733Z,996.85
2018-06-28T00:51:36.580Z,996.88
2018-06-28T00:52:46.160Z,996.89
2018-06-28T00:53:56.243Z,996.9
2018-06-28T00:55:06.329Z,996.89
2018-06-28T00:56:16.470Z,996.84
2018-06-28T00:57:26.327Z,996.87
2018-06-28T00:58:36.411Z,996.8
2018-06-28T00:59:46.476Z,996.73
2018-06-28T01:00:56.606Z,996.71
2018-06-28T01:02:06.674Z,996.69
2018-06-28T01:03:16.480Z,996.67
2018-06-28T01:04:26.542Z,996.63
2018-06-28T01:05:36.361Z,996.6
2018-06-28T01:06:46.437Z,996.61
2018-06-28T01:07:56.262Z,996.63
2018-06-28T01:09:06.079Z,996.64
2018-06-28T01:10:16.146Z,996.6
2018-06-28T01:11:25.736Z,996.67
2018-06-28T01:12:35.547Z,996.63
2018-06-28T01:13:45.672Z,996.58
2018-06-28T01:14:55.474Z,996.58
2018-06-28T01:16:05.533Z,996.54
2018-06-28T01:17:15.606Z,996.53
2018-06-28T01:18:25.678Z,996.42
2018-06-28T01:19:35.240Z,996.36
2018-06-28T01:20:44.841Z,996.36
2018-06-28T01:21:54.908Z,996.34
2018-06-28T01:23:04.972Z,996.37
2018-06-28T01:24:15.057Z,996.35
2018-06-28T01:25:25.140Z,996.29
2018-06-28T01:26:35.263Z,996.27
2018-06-28T01:27:45.366Z,996.29
2018-06-28T01:28:55.453Z,996.19
2018-06-28T01:30:05.299Z,996.18
2018-06-28T01:31:15.367Z,996.21
2018-06-28T01:32:25.430Z,996.21
2018-06-28T01:33:35.252Z,996.22
2018-06-28T01:34:45.325Z,996.25
2018-06-28T01:35:55.416Z,996.16
2018-06-28T01:37:05.230Z,996.11
2018-06-28T01:38:15.290Z,996.09
2018-06-28T01:39:25.389Z,996.09
2018-06-28T01:40:35.457Z,996.14
2018-06-28T01:41:45.528Z,996.01
2018-06-28T01:42:55.655Z,996.04
2018-06-28T01:44:05.728Z,996
2018-06-28T01:45:15.792Z,996.08
2018-06-28T01:46:25.866Z,996.04
2018-06-28T01:47:35.942Z,996.12
2018-06-28T01:48:46.000Z,996.01
2018-06-28T01:49:56.086Z,996.01
2018-06-28T01:51:06.173Z,995.9
2018-06-28T01:52:16.253Z,995.9
2018-06-28T01:53:26.339Z,995.91
2018-06-28T01:54:36.426Z,995.92
2018-06-28T01:55:46.282Z,995.9
2018-06-28T01:56:56.110Z,995.84
2018-06-28T01:58:05.917Z,995.89
2018-06-28T01:59:15.738Z,995.86
2018-06-28T02:00:25.549Z,995.8
2018-06-28T02:01:35.365Z,995.81
2018-06-28T02:02:45.450Z,995.73
2018-06-28T02:03:55.258Z,995.8
2018-06-28T02:05:05.069Z,995.7
2018-06-28T02:06:15.160Z,995.75
2018-06-28T02:07:24.985Z,995.77
2018-06-28T02:08:34.787Z,995.74
2018-06-28T02:09:44.853Z,995.77
2018-06-28T02:10:54.646Z,995.67
2018-06-28T02:12:04.722Z,995.68
2018-06-28T02:13:14.789Z,995.69
2018-06-28T02:14:24.601Z,995.67
2018-06-28T02:15:34.674Z,995.64
2018-06-28T02:16:44.480Z,995.6
2018-06-28T02:17:54.571Z,995.58
2018-06-28T02:19:04.699Z,995.59
2018-06-28T02:20:14.759Z,995.54
2018-06-28T02:21:24.582Z,995.49
2018-06-28T02:22:34.657Z,995.5
2018-06-28T02:23:44.744Z,995.46
2018-06-28T02:24:54.598Z,995.42
2018-06-28T02:26:04.669Z,995.45
2018-06-28T02:27:14.757Z,995.48
2018-06-28T02:28:24.312Z,995.39
2018-06-28T02:29:34.400Z,995.43
2018-06-28T02:30:44.498Z,995.36
2018-06-28T02:31:54.592Z,995.37
2018-06-28T02:33:04.660Z,995.39
2018-06-28T02:34:14.474Z,995.41
2018-06-28T02:35:24.297Z,995.36
2018-06-28T02:36:34.374Z,995.33
2018-06-28T02:37:43.922Z,995.33
2018-06-28T02:38:54.028Z,995.32
2018-06-28T02:40:04.101Z,995.32
2018-06-28T02:41:14.185Z,995.31
2018-06-28T02:42:24.006Z,995.34
2018-06-28T02:43:34.098Z,995.3
2018-06-28T02:44:44.183Z,995.34
2018-06-28T02:45:54.010Z,995.35
2018-06-28T02:47:03.897Z,995.28
2018-06-28T02:48:13.988Z,995.29
2018-06-28T02:49:24.059Z,995.26
2018-06-28T02:50:34.115Z,995.19
2018-06-28T02:51:43.927Z,995.25
2018-06-28T02:52:53.748Z,995.2
2018-06-28T02:54:03.839Z,995.14
2018-06-28T02:55:13.914Z,995.15
2018-06-28T02:56:24.013Z,995.06
2018-06-28T02:57:33.299Z,995.06
2018-06-28T02:58:43.400Z,995.05
2018-06-28T02:59:53.467Z,995.04
2018-06-28T03:01:03.306Z,995.07
2018-06-28T03:02:13.115Z,995.09
2018-06-28T03:34:52.966Z,994.69
2018-06-28T03:36:03.038Z,994.72
2018-06-28T03:37:13.134Z,994.7
2018-06-28T03:38:23.207Z,994.64
2018-06-28T03:39:33.060Z,994.67
2018-06-28T03:40:43.181Z,994.66
2018-06-28T03:41:52.984Z,994.66
2018-06-28T03:43:02.794Z,994.66
2018-06-28T03:44:12.894Z,994.63
2018-06-28T03:45:22.960Z,994.67
2018-06-28T03:46:32.821Z,994.64
2018-06-28T03:47:42.886Z,994.66
2018-06-28T03:48:52.964Z,994.64
2018-06-28T03:50:03.053Z,994.62
2018-06-28T03:51:13.109Z,994.65
2018-06-28T03:52:22.987Z,994.63
2018-06-28T03:53:33.054Z,994.62
2018-06-28T03:54:43.135Z,994.62
2018-06-28T03:55:52.943Z,994.65
2018-06-28T03:57:03.012Z,994.64
2018-06-28T03:58:12.889Z,994.64
2018-06-28T03:59:22.966Z,994.51
2018-06-28T04:00:33.048Z,994.58
2018-06-28T04:01:43.141Z,994.53
2018-06-28T04:02:52.935Z,994.56
2018-06-28T04:04:02.465Z,994.48
2018-06-28T04:05:12.530Z,994.47
2018-06-28T04:06:22.601Z,994.5
2018-06-28T04:07:32.544Z,994.46
2018-06-28T04:08:42.611Z,994.52
2018-06-28T04:09:52.171Z,994.46
2018-06-28T04:11:02.239Z,994.41
2018-06-28T04:12:12.311Z,994.47
2018-06-28T04:13:22.133Z,994.39
2018-06-28T04:14:32.194Z,994.34
2018-06-28T04:15:42.264Z,994.38
2018-06-28T04:16:52.076Z,994.31
2018-06-28T04:18:02.159Z,994.36
2018-06-28T04:19:12.263Z,994.32
2018-06-28T04:20:22.344Z,994.29
2018-06-28T04:21:32.409Z,994.32
2018-06-28T04:22:42.204Z,994.34
2018-06-28T04:23:52.281Z,994.3
2018-06-28T04:25:02.090Z,994.22
2018-06-28T04:26:11.886Z,994.22
2018-06-28T04:27:21.992Z,994.26
2018-06-28T04:28:32.232Z,994.24
2018-06-28T04:29:42.307Z,994.22
2018-06-28T04:30:52.099Z,994.21
2018-06-28T04:32:02.174Z,994.17
2018-06-28T04:33:12.282Z,994.16
2018-06-28T04:34:22.569Z,994.13
2018-06-28T04:35:32.643Z,994.16
2018-06-28T04:36:42.744Z,994.2
2018-06-28T04:37:52.808Z,994.12
2018-06-28T04:39:02.895Z,994.11
2018-06-28T04:40:12.970Z,994.13
2018-06-28T04:41:22.798Z,994.1
2018-06-28T04:42:32.883Z,994.08
2018-06-28T04:43:42.967Z,994.07
2018-06-28T04:44:52.766Z,994
2018-06-28T04:46:02.568Z,994.03
2018-06-28T04:47:12.640Z,994.03
2018-06-28T04:48:22.443Z,994.05
2018-06-28T04:49:32.243Z,994.06
2018-06-28T04:50:42.313Z,994.01
2018-06-28T04:51:52.390Z,993.97
2018-06-28T04:53:01.674Z,993.98
2018-06-28T04:54:11.751Z,993.98
2018-06-28T04:55:21.549Z,993.99
2018-06-28T04:56:31.631Z,994
2018-06-28T04:57:41.716Z,993.98
2018-06-28T04:58:51.799Z,994.01
2018-06-28T05:00:01.393Z,993.95
2018-06-28T05:01:11.512Z,993.96
2018-06-28T05:02:21.828Z,993.97
2018-06-28T05:03:31.905Z,993.94
2018-06-28T05:04:41.978Z,993.98
2018-06-28T05:05:52.037Z,993.92
2018-06-28T05:07:02.147Z,993.9
2018-06-28T05:08:12.627Z,993.91
2018-06-28T05:09:22.709Z,993.89
2018-06-28T05:10:32.517Z,993.81
2018-06-28T05:11:42.614Z,993.82
2018-06-28T05:12:52.431Z,993.84
2018-06-28T05:14:02.505Z,993.87
2018-06-28T05:15:12.320Z,993.84
2018-06-28T05:16:22.400Z,993.83
2018-06-28T05:17:32.494Z,993.82
2018-06-28T05:18:42.569Z,993.81
2018-06-28T05:19:52.653Z,993.78
2018-06-28T05:21:02.732Z,993.81
2018-06-28T05:22:12.797Z,993.81
2018-06-28T05:23:22.787Z,993.78
2018-06-28T05:24:33.060Z,993.77
2018-06-28T05:25:43.132Z,993.74
2018-06-28T05:26:53.200Z,993.8
2018-06-28T05:28:03.269Z,993.77
2018-06-28T05:29:13.121Z,993.8
2018-06-28T05:30:23.219Z,993.76
2018-06-28T05:31:33.022Z,993.74
2018-06-28T05:32:43.149Z,993.78
2018-06-28T05:33:53.230Z,993.71
2018-06-28T05:35:03.308Z,993.72
2018-06-28T05:36:13.373Z,993.71
2018-06-28T05:37:23.506Z,993.72
2018-06-28T05:38:33.334Z,993.65
2018-06-28T05:39:43.411Z,993.68
2018-06-28T05:40:53.480Z,993.64
2018-06-28T05:42:03.599Z,993.64
2018-06-28T05:43:13.412Z,993.62
2018-06-28T05:44:23.487Z,993.63
2018-06-28T05:45:33.302Z,993.72
2018-06-28T05:46:43.374Z,993.61
2018-06-28T05:47:53.442Z,993.64
2018-06-28T05:49:03.655Z,993.69
2018-06-28T05:50:13.482Z,993.63
2018-06-28T05:51:23.562Z,993.72
2018-06-28T05:52:33.391Z,993.66
2018-06-28T05:53:43.464Z,993.69
2018-06-28T05:54:53.549Z,993.69
2018-06-28T05:56:03.628Z,993.7
2018-06-28T05:57:13.440Z,993.66
2018-06-28T05:58:23.508Z,993.79
2018-06-28T05:59:33.638Z,993.76
2018-06-28T06:00:43.720Z,993.78
2018-06-28T06:01:53.788Z,993.74
2018-06-28T06:03:03.850Z,993.76
2018-06-28T06:04:13.918Z,993.74
2018-06-28T06:05:23.777Z,993.68
2018-06-28T06:06:33.851Z,993.69
2018-06-28T06:07:43.937Z,993.67
2018-06-28T06:08:53.743Z,993.72
2018-06-28T06:10:03.821Z,993.66
2018-06-28T06:11:13.958Z,993.69
2018-06-28T06:12:23.771Z,993.66
2018-06-28T06:13:33.833Z,993.71
2018-06-28T06:14:43.931Z,993.69
2018-06-28T06:15:54.022Z,993.69
2018-06-28T06:17:04.170Z,993.69
2018-06-28T06:18:14.244Z,993.69
2018-06-28T06:19:24.047Z,993.69
2018-06-28T06:20:34.114Z,993.65
2018-06-28T06:21:43.936Z,993.67
2018-06-28T06:22:54.111Z,993.7
2018-06-28T06:24:04.202Z,993.69
2018-06-28T06:25:14.006Z,993.68
2018-06-28T06:26:24.085Z,993.69
2018-06-28T06:27:34.157Z,993.71
2018-06-28T06:28:44.244Z,993.68
2018-06-28T06:29:54.336Z,993.63
2018-06-28T06:31:04.156Z,993.68
2018-06-28T06:32:14.228Z,993.7
2018-06-28T06:33:24.354Z,993.7
2018-06-28T06:34:34.442Z,993.67
2018-06-28T06:35:44.250Z,993.66
2018-06-28T06:36:54.328Z,993.65
2018-06-28T06:38:04.186Z,993.67
2018-06-28T06:39:14.011Z,993.63
2018-06-28T06:40:23.850Z,993.64
2018-06-28T06:41:33.669Z,993.71
2018-06-28T06:42:43.741Z,993.66
2018-06-28T06:43:53.835Z,993.64
2018-06-28T06:45:03.915Z,993.61
2018-06-28T06:46:13.818Z,993.61
2018-06-28T06:47:23.619Z,993.62
2018-06-28T06:48:33.697Z,993.61
2018-06-28T06:49:43.861Z,993.6
2018-06-28T06:50:53.928Z,993.6
2018-06-28T06:52:04.001Z,993.58
2018-06-28T06:53:14.071Z,993.58
2018-06-28T06:54:24.147Z,993.62
2018-06-28T06:55:33.844Z,993.65
2018-06-28T06:56:43.663Z,993.58
2018-06-28T06:57:53.726Z,993.6
2018-06-28T06:59:03.537Z,993.55
2018-06-28T07:00:13.620Z,993.65
2018-06-28T07:01:23.852Z,993.64
2018-06-28T07:02:33.684Z,993.63
2018-06-28T07:03:43.820Z,993.59
2018-06-28T07:04:53.908Z,993.61
2018-06-28T07:06:03.994Z,993.59
2018-06-28T07:07:14.067Z,993.62
2018-06-28T07:08:23.628Z,993.63
2018-06-28T07:09:33.465Z,993.61
2018-06-28T07:10:43.562Z,993.55
2018-06-28T07:11:53.373Z,993.61
2018-06-28T07:13:03.453Z,993.62
2018-06-28T07:14:13.269Z,993.56
2018-06-28T07:15:23.401Z,993.61
2018-06-28T07:16:33.486Z,993.58
2018-06-28T07:17:43.555Z,993.58
2018-06-28T07:18:53.804Z,993.58
2018-06-28T07:20:03.875Z,993.56
2018-06-28T07:21:13.959Z,993.55
2018-06-28T07:22:24.049Z,993.57
2018-06-28T07:23:34.117Z,993.56
2018-06-28T07:24:44.191Z,993.54
2018-06-28T07:25:54.011Z,993.56
2018-06-28T07:27:03.881Z,993.57
2018-06-28T07:28:13.951Z,993.59
2018-06-28T07:29:23.550Z,993.56
2018-06-28T07:30:33.655Z,993.56
2018-06-28T07:31:43.736Z,993.6
2018-06-28T07:32:54.024Z,993.57
2018-06-28T07:34:04.285Z,993.54
2018-06-28T07:35:15.149Z,993.57
2018-06-28T07:36:25.220Z,993.54
2018-06-28T07:37:35.034Z,993.56
2018-06-28T07:38:44.953Z,993.52
2018-06-28T07:39:54.758Z,993.54
2018-06-28T07:41:04.822Z,993.52
2018-06-28T07:42:14.901Z,993.53
2018-06-28T07:43:25.026Z,993.5
2018-06-28T07:44:35.898Z,993.54
2018-06-28T07:45:45.978Z,993.54
2018-06-28T07:46:56.104Z,993.52
2018-06-28T07:48:06.363Z,993.51
2018-06-28T07:49:16.435Z,993.48
2018-06-28T07:50:26.520Z,993.53
2018-06-28T07:51:36.344Z,993.53
2018-06-28T07:52:46.151Z,993.53
2018-06-28T07:53:56.216Z,993.54
2018-06-28T07:55:06.292Z,993.49
2018-06-28T07:56:16.377Z,993.49
2018-06-28T07:57:26.458Z,993.5
2018-06-28T07:58:36.274Z,993.46
2018-06-28T07:59:46.352Z,993.48
2018-06-28T08:00:56.426Z,993.48
2018-06-28T08:02:06.253Z,993.48
2018-06-28T08:03:16.344Z,993.51
2018-06-28T08:04:26.511Z,993.49
2018-06-28T08:05:36.345Z,993.54
2018-06-28T08:06:46.160Z,993.59
2018-06-28T08:07:56.235Z,993.54
2018-06-28T08:09:06.311Z,993.49
2018-06-28T08:10:16.421Z,993.5
2018-06-28T08:11:26.508Z,993.54
2018-06-28T08:12:36.592Z,993.54
2018-06-28T08:13:46.670Z,993.52
2018-06-28T08:14:56.506Z,993.54
2018-06-28T08:16:06.604Z,993.55
2018-06-28T08:17:16.727Z,993.47
2018-06-28T08:18:26.801Z,993.53
2018-06-28T08:19:36.083Z,993.5
2018-06-28T08:20:46.244Z,993.51
2018-06-28T08:21:56.358Z,993.53
2018-06-28T08:23:06.460Z,993.53
2018-06-28T08:24:16.624Z,993.55
2018-06-28T08:25:26.714Z,993.57
2018-06-28T08:26:36.834Z,993.53
2018-06-28T08:27:46.925Z,993.55
2018-06-28T08:28:56.753Z,993.51
2018-06-28T08:30:06.857Z,993.54
2018-06-28T08:31:16.677Z,993.5
2018-06-28T08:32:26.813Z,993.49
2018-06-28T08:33:36.915Z,993.5
2018-06-28T08:34:46.734Z,993.51
2018-06-28T08:35:56.860Z,993.53
2018-06-28T08:37:07.382Z,993.52
2018-06-28T08:38:17.541Z,993.53
2018-06-28T08:39:27.639Z,993.5
2018-06-28T08:40:37.744Z,993.54
2018-06-28T08:41:47.844Z,993.49
2018-06-28T08:42:57.936Z,993.5
2018-06-28T08:44:08.040Z,993.5
2018-06-28T08:45:18.154Z,993.53
2018-06-28T08:46:28.256Z,993.53
2018-06-28T08:47:38.091Z,993.49
2018-06-28T08:48:48.182Z,993.52
2018-06-28T08:49:58.448Z,993.54
2018-06-28T08:51:08.533Z,993.58
2018-06-28T08:52:18.617Z,993.55
2018-06-28T08:53:28.704Z,993.57
2018-06-28T08:54:38.534Z,993.59
2018-06-28T08:55:48.609Z,993.61
2018-06-28T08:56:58.706Z,993.56
2018-06-28T08:58:08.823Z,993.6
2018-06-28T08:59:19.157Z,993.6
2018-06-28T09:00:29.253Z,993.58
2018-06-28T09:01:39.390Z,993.61
2018-06-28T09:02:49.527Z,993.63
2018-06-28T09:03:59.459Z,993.67
2018-06-28T09:05:09.317Z,993.65
2018-06-28T09:06:19.435Z,993.62
2018-06-28T09:07:29.279Z,993.65
2018-06-28T09:08:39.117Z,993.65
2018-06-28T09:09:48.683Z,993.66
2018-06-28T09:10:58.795Z,993.65
2018-06-28T09:12:08.893Z,993.61
2018-06-28T09:13:18.724Z,993.64
2018-06-28T09:14:28.798Z,993.65
2018-06-28T09:15:38.883Z,993.65
2018-06-28T09:16:48.978Z,993.65
2018-06-28T09:17:59.085Z,993.63
2018-06-28T09:19:09.252Z,993.71
2018-06-28T09:20:19.331Z,993.67
2018-06-28T09:21:29.163Z,993.71
2018-06-28T09:22:39.345Z,993.66
2018-06-28T09:23:50.013Z,993.64
2018-06-28T09:25:00.146Z,993.64
2018-06-28T09:26:10.224Z,993.64
2018-06-28T09:27:20.396Z,993.62
2018-06-28T09:28:32.263Z,993.64
2018-06-28T09:29:42.355Z,993.66
2018-06-28T09:30:52.242Z,993.68
2018-06-28T09:32:01.809Z,993.69
2018-06-28T09:33:11.915Z,993.66
2018-06-28T09:34:21.734Z,993.69
2018-06-28T09:35:31.548Z,993.69
2018-06-28T09:36:41.428Z,993.68
2018-06-28T09:37:51.604Z,993.72
2018-06-28T09:39:01.806Z,993.69
2018-06-28T09:40:12.452Z,993.7
2018-06-28T09:41:22.295Z,993.74
2018-06-28T09:42:31.899Z,993.72
2018-06-28T09:43:41.775Z,993.69
2018-06-28T09:44:51.865Z,993.73
2018-06-28T09:46:01.693Z,993.68
2018-06-28T09:47:11.777Z,993.66
2018-06-28T09:48:21.688Z,993.65
2018-06-28T09:49:31.805Z,993.65
2018-06-28T09:50:41.898Z,993.68
2018-06-28T09:51:51.738Z,993.72
2018-06-28T09:53:01.842Z,993.72
2018-06-28T09:54:11.718Z,993.73
2018-06-28T09:55:21.539Z,993.71
2018-06-28T09:56:31.631Z,993.69
2018-06-28T09:57:41.743Z,993.73
2018-06-28T09:58:52.305Z,993.75
2018-06-28T10:00:02.380Z,993.75
2018-06-28T10:01:12.559Z,993.71
2018-06-28T10:02:22.655Z,993.77
2018-06-28T10:03:32.762Z,993.81
2018-06-28T10:04:42.869Z,993.77
2018-06-28T10:05:53.014Z,993.77
2018-06-28T10:07:03.108Z,993.8
2018-06-28T10:08:13.210Z,993.76
2018-06-28T10:09:23.315Z,993.77
2018-06-28T10:10:33.426Z,993.76
2018-06-28T10:11:43.521Z,993.74
2018-06-28T10:12:53.371Z,993.71
2018-06-28T10:14:03.202Z,993.74
2018-06-28T10:15:13.327Z,993.77
2018-06-28T10:16:23.198Z,993.78
2018-06-28T10:17:33.323Z,993.68
2018-06-28T10:18:43.436Z,993.71
2018-06-28T10:19:53.283Z,993.71
2018-06-28T10:21:03.384Z,993.68
2018-06-28T10:22:13.491Z,993.68
2018-06-28T10:23:23.593Z,993.7
2018-06-28T10:24:33.694Z,993.64
2018-06-28T10:25:44.123Z,993.66
2018-06-28T10:26:54.229Z,993.7
2018-06-28T10:28:04.326Z,993.68
2018-06-28T10:29:14.148Z,993.73
2018-06-28T10:30:24.258Z,993.7
2018-06-28T10:31:34.360Z,993.65
2018-06-28T10:32:44.513Z,993.65
2018-06-28T10:33:54.910Z,993.65
2018-06-28T10:35:05.064Z,993.67
2018-06-28T10:36:15.398Z,993.66
2018-06-28T10:37:25.496Z,993.65
2018-06-28T10:38:35.329Z,993.67
2018-06-28T10:39:45.418Z,993.64
2018-06-28T10:40:55.333Z,993.66
2018-06-28T10:42:05.723Z,993.67
2018-06-28T10:43:15.272Z,993.64
2018-06-28T10:44:25.412Z,993.65
2018-06-28T10:45:35.247Z,993.71
2018-06-28T10:46:45.428Z,993.72
2018-06-28T10:47:55.519Z,993.69
2018-06-28T10:49:05.698Z,993.71
2018-06-28T10:50:15.834Z,993.75
2018-06-28T10:51:26.063Z,993.76
2018-06-28T10:52:36.146Z,993.73
2018-06-28T10:53:45.977Z,993.75
2018-06-28T10:54:56.149Z,993.75
2018-06-28T10:56:05.989Z,993.7
2018-06-28T10:57:16.107Z,993.72
2018-06-28T10:58:26.212Z,993.7
2018-06-28T10:59:36.301Z,993.69
2018-06-28T11:00:46.405Z,993.64
2018-06-28T11:01:56.498Z,993.61
2018-06-28T11:03:06.579Z,993.64
2018-06-28T11:04:16.417Z,993.69
2018-06-28T11:05:26.498Z,993.68
2018-06-28T11:06:36.597Z,993.72
2018-06-28T11:07:46.424Z,993.69
2018-06-28T11:08:56.237Z,993.67
2018-06-28T11:10:06.338Z,993.66
2018-06-28T11:11:16.422Z,993.64
2018-06-28T11:12:26.577Z,993.63
2018-06-28T11:13:37.162Z,993.62
2018-06-28T11:14:46.739Z,993.61
2018-06-28T11:15:56.857Z,993.6
2018-06-28T11:17:06.974Z,993.58
2018-06-28T11:18:17.091Z,993.6
2018-06-28T11:19:26.973Z,993.65
2018-06-28T11:20:37.132Z,993.65
2018-06-28T11:21:46.974Z,993.68
2018-06-28T11:22:57.067Z,993.66
2018-06-28T11:24:07.161Z,993.71
2018-06-28T11:25:17.264Z,993.67
2018-06-28T11:26:27.386Z,993.72
2018-06-28T11:27:37.728Z,993.69
2018-06-28T11:28:47.549Z,993.66
2018-06-28T11:29:57.372Z,993.71
2018-06-28T11:31:07.209Z,993.64
2018-06-28T11:32:17.344Z,993.66
2018-06-28T11:33:26.889Z,993.65
2018-06-28T11:34:37.016Z,993.67
2018-06-28T11:35:47.124Z,993.68
2018-06-28T11:36:57.245Z,993.64
2018-06-28T11:38:07.125Z,993.67
2018-06-28T11:39:17.221Z,993.63
2018-06-28T11:40:27.313Z,993.64
2018-06-28T11:41:37.677Z,993.67
2018-06-28T11:42:47.804Z,993.68
2018-06-28T11:43:57.944Z,993.69
2018-06-28T11:45:08.034Z,993.68
2018-06-28T11:46:17.866Z,993.7
2018-06-28T11:47:27.960Z,993.68
2018-06-28T11:48:38.040Z,993.69
2018-06-28T11:49:48.167Z,993.65
2018-06-28T11:50:58.482Z,993.7
2018-06-28T11:52:08.665Z,993.7
2018-06-28T11:53:19.030Z,993.73
2018-06-28T11:54:29.116Z,993.7
2018-06-28T11:55:39.306Z,993.75
2018-06-28T11:56:49.490Z,993.75
2018-06-28T11:57:59.593Z,993.74
2018-06-28T11:59:09.699Z,993.77
2018-06-28T12:00:19.543Z,993.72
2018-06-28T12:01:29.722Z,993.71
2018-06-28T12:02:39.552Z,993.66
2018-06-28T12:03:49.640Z,993.66
2018-06-28T12:04:59.729Z,993.65
2018-06-28T12:06:09.551Z,993.62
2018-06-28T12:07:19.676Z,993.66
2018-06-28T12:08:29.483Z,993.67
2018-06-28T12:09:39.560Z,993.62
2018-06-28T12:10:49.666Z,993.64
2018-06-28T12:11:59.768Z,993.61
2018-06-28T12:13:09.865Z,993.65
2018-06-28T12:14:19.936Z,993.65
2018-06-28T12:15:29.679Z,993.63
2018-06-28T12:16:39.617Z,993.62
2018-06-28T12:17:49.714Z,993.61
2018-06-28T12:18:59.830Z,993.62
2018-06-28T12:20:09.912Z,993.61
2018-06-28T12:21:19.731Z,993.61
2018-06-28T12:22:29.900Z,993.59
2018-06-28T12:23:40.063Z,993.54
2018-06-28T12:24:50.146Z,993.63
2018-06-28T12:25:59.994Z,993.59
2018-06-28T12:27:09.822Z,993.56
2018-06-28T12:28:19.653Z,993.54
2018-06-28T12:29:29.492Z,993.51
2018-06-28T12:30:39.609Z,993.53
2018-06-28T12:31:49.702Z,993.51
2018-06-28T12:32:59.820Z,993.53
2018-06-28T12:34:09.920Z,993.56
2018-06-28T12:35:19.738Z,993.6
2018-06-28T12:36:29.293Z,993.62
2018-06-28T12:37:39.390Z,993.62
2018-06-28T12:38:49.222Z,993.58
2018-06-28T12:39:59.300Z,993.59
2018-06-28T12:41:09.169Z,993.56
2018-06-28T12:42:19.254Z,993.57
2018-06-28T12:43:29.340Z,993.53
2018-06-28T12:44:38.912Z,993.51
2018-06-28T12:45:49.000Z,993.56
2018-06-28T12:46:58.828Z,993.6
2018-06-28T12:48:08.935Z,993.6
2018-06-28T12:49:19.028Z,993.62
2018-06-28T12:50:28.604Z,993.64
2018-06-28T12:51:38.430Z,993.62
2018-06-28T12:52:48.544Z,993.66
2018-06-28T12:53:58.636Z,993.63
2018-06-28T12:55:08.833Z,993.67
2018-06-28T12:56:18.948Z,993.63
2018-06-28T12:57:29.040Z,993.59
2018-06-28T12:58:39.117Z,993.61
2018-06-28T12:59:49.235Z,993.58
2018-06-28T13:00:59.851Z,993.58
2018-06-28T13:02:09.988Z,993.55
2018-06-28T13:03:20.089Z,993.55
2018-06-28T13:04:29.655Z,993.62
2018-06-28T13:05:39.738Z,993.55
2018-06-28T13:06:49.841Z,993.53
2018-06-28T13:07:59.918Z,993.57
2018-06-28T13:09:09.753Z,993.59
2018-06-28T13:10:20.100Z,993.56
2018-06-28T13:11:30.181Z,993.58
2018-06-28T13:12:39.806Z,993.59
2018-06-28T13:13:50.170Z,993.61
2018-06-28T13:15:00.027Z,993.62
2018-06-28T13:16:09.844Z,993.57
2018-06-28T13:17:19.697Z,993.52
2018-06-28T13:18:29.792Z,993.6
2018-06-28T13:19:40.009Z,993.58
2018-06-28T13:20:49.848Z,993.56
2018-06-28T13:21:59.976Z,993.6
2018-06-28T13:23:10.064Z,993.6
2018-06-28T13:24:20.151Z,993.58
2018-06-28T13:25:30.271Z,993.58
2018-06-28T13:26:40.360Z,993.6
2018-06-28T13:27:50.445Z,993.61
2018-06-28T13:29:00.539Z,993.56
2018-06-28T13:30:10.646Z,993.6
2018-06-28T13:31:20.744Z,993.56
2018-06-28T13:32:30.867Z,993.62
2018-06-28T13:33:40.424Z,993.61
2018-06-28T13:34:50.649Z,993.57
2018-06-28T13:36:00.735Z,993.55
2018-06-28T13:37:10.838Z,993.51
2018-06-28T13:38:20.914Z,993.54
2018-06-28T13:39:31.143Z,993.48
2018-06-28T13:40:41.486Z,993.52
2018-06-28T13:41:52.446Z,993.51
2018-06-28T13:43:02.618Z,993.49
2018-06-28T13:44:12.712Z,993.48
2018-06-28T13:45:22.811Z,993.44
2018-06-28T13:46:32.647Z,993.39
2018-06-28T13:47:42.467Z,993.38
2018-06-28T13:48:52.557Z,993.36
2018-06-28T13:50:02.426Z,993.4
2018-06-28T13:51:12.292Z,993.41
2018-06-28T13:52:22.393Z,993.38
2018-06-28T13:53:32.491Z,993.36
2018-06-28T13:54:42.577Z,993.43
2018-06-28T13:55:52.663Z,993.46
2018-06-28T13:57:02.539Z,993.41
2018-06-28T13:58:12.653Z,993.47
2018-06-28T13:59:22.767Z,993.52
2018-06-28T14:00:32.843Z,993.42
2018-06-28T14:01:42.926Z,993.37
2018-06-28T14:02:53.070Z,993.43
2018-06-28T14:04:03.394Z,993.45
2018-06-28T14:05:13.488Z,993.47
2018-06-28T14:06:23.316Z,993.39
2018-06-28T14:07:33.134Z,993.38
2018-06-28T14:08:43.276Z,993.41
2018-06-28T14:09:53.379Z,993.43
2018-06-28T14:11:03.460Z,993.43
2018-06-28T14:12:13.573Z,993.41
2018-06-28T14:13:23.394Z,993.49
2018-06-28T14:14:33.517Z,993.45
2018-06-28T14:15:43.626Z,993.41
2018-06-28T14:16:53.734Z,993.43
2018-06-28T14:18:03.848Z,993.48
2018-06-28T14:19:13.667Z,993.41
2018-06-28T14:20:23.601Z,993.41
2018-06-28T14:21:34.032Z,993.42
2018-06-28T14:22:44.139Z,993.44
2018-06-28T14:23:53.965Z,993.39
2018-06-28T14:25:04.083Z,993.41
2018-06-28T14:26:14.185Z,993.37
2018-06-28T14:27:24.282Z,993.36
2018-06-28T14:28:34.406Z,993.29
2018-06-28T14:29:44.519Z,993.24
2018-06-28T14:30:54.593Z,993.24
2018-06-28T14:32:04.700Z,993.21
2018-06-28T14:33:14.530Z,993.19
2018-06-28T14:34:24.630Z,993.2
2018-06-28T14:35:34.718Z,993.15
2018-06-28T14:36:44.808Z,993.11
2018-06-28T14:37:54.636Z,993.15
2018-06-28T14:39:04.478Z,993.14
2018-06-28T14:40:14.575Z,993.2
2018-06-28T14:41:24.669Z,993.21
2018-06-28T14:42:34.880Z,993.16
2018-06-28T14:43:44.986Z,993.22
2018-06-28T14:44:55.100Z,993.2
2018-06-28T14:46:05.712Z,993.2
2018-06-28T14:47:15.869Z,993.23
2018-06-28T14:48:26.072Z,993.19
2018-06-28T14:49:36.218Z,993.18
2018-06-28T14:50:46.311Z,993.16
2018-06-28T14:51:56.414Z,993.12
2018-06-28T14:53:06.519Z,993.15
2018-06-28T14:54:17.038Z,993.08
2018-06-28T14:55:27.178Z,993.04
2018-06-28T14:56:37.284Z,993.01
2018-06-28T14:57:47.387Z,993.05
2018-06-28T14:58:57.217Z,992.95
2018-06-28T15:00:07.314Z,993.02
2018-06-28T15:01:17.423Z,992.97
2018-06-28T15:02:27.529Z,992.97
2018-06-28T15:03:37.370Z,992.99
2018-06-28T15:04:47.456Z,993
2018-06-28T15:05:57.339Z,993.02
2018-06-28T15:07:07.481Z,993.01
2018-06-28T15:08:17.592Z,992.99